Lake Grove, New York
Current Conditions -  °F | °C
As of 12:56 AM on Sunday 26 Oct 2014 (Local Time) from KISP Reporting Station
Few Clouds Few Clouds  
Wind Chill: 59°   Ceiling: Unl
Heat Index: 59°   Visibility: 10mi
Dew Point: 47°   Wind: 9mph
Humidity: 64%   Direction: 230°SW
Pressure: 29.53"   Gusts: NA
Location:  40.85°N, 73.11°W
Report Text: KISP 260456Z AUTO 23008KT 10SM FEW100 15/08 A2953 RMK AO2 SLP999 T01500083 401940056
Loading
Personal Weather Stations






























Interactive Weather Map
Tropical Storm Tracking
New forecast layout! Learn more

10-Day Weather Forecast

Advertisements
Track Severe Weather on mobile